sensor_id;sensor_type;location;lat;lon;timestamp;P1;durP1;ratioP1;P2;durP2;ratioP2
16099;SDS011;8154;50.830;12.082;2023-12-14T00:01:42;18.48;;;8.90;;
16099;SDS011;8154;50.830;12.082;2023-12-14T00:04:27;15.63;;;7.95;;
16099;SDS011;8154;50.830;12.082;2023-12-14T00:06:53;17.58;;;8.80;;
16099;SDS011;8154;50.830;12.082;2023-12-14T00:09:20;17.23;;;8.53;;
16099;SDS011;8154;50.830;12.082;2023-12-14T00:11:47;16.88;;;8.40;;
16099;SDS011;8154;50.830;12.082;2023-12-14T00:14:14;15.73;;;7.75;;
16099;SDS011;8154;50.830;12.082;2023-12-14T00:16:43;15.90;;;7.65;;
16099;SDS011;8154;50.830;12.082;2023-12-14T00:19:09;17.05;;;7.80;;
16099;SDS011;8154;50.830;12.082;2023-12-14T00:21:35;16.30;;;8.17;;
16099;SDS011;8154;50.830;12.082;2023-12-14T00:24:06;16.42;;;7.93;;
16099;SDS011;8154;50.830;12.082;2023-12-14T00:26:33;15.68;;;6.82;;
16099;SDS011;8154;50.830;12.082;2023-12-14T00:28:59;15.55;;;7.93;;
16099;SDS011;8154;50.830;12.082;2023-12-14T00:31:27;15.18;;;7.80;;
16099;SDS011;8154;50.830;12.082;2023-12-14T00:33:57;15.10;;;7.47;;
16099;SDS011;8154;50.830;12.082;2023-12-14T00:36:28;14.70;;;7.40;;
16099;SDS011;8154;50.830;12.082;2023-12-14T00:38:54;15.82;;;7.18;;
16099;SDS011;8154;50.830;12.082;2023-12-14T00:41:21;13.82;;;7.32;;
16099;SDS011;8154;50.830;12.082;2023-12-14T00:43:47;14.38;;;7.22;;
16099;SDS011;8154;50.830;12.082;2023-12-14T00:46:14;14.47;;;7.33;;
16099;SDS011;8154;50.830;12.082;2023-12-14T00:48:41;14.07;;;6.63;;
16099;SDS011;8154;50.830;12.082;2023-12-14T00:51:26;14.90;;;7.22;;
16099;SDS011;8154;50.830;12.082;2023-12-14T00:53:52;14.20;;;6.70;;
16099;SDS011;8154;50.830;12.082;2023-12-14T00:56:22;14.02;;;6.88;;
16099;SDS011;8154;50.830;12.082;2023-12-14T00:58:48;13.80;;;6.50;;
16099;SDS011;8154;50.830;12.082;2023-12-14T01:01:15;12.98;;;6.20;;
16099;SDS011;8154;50.830;12.082;2023-12-14T01:03:43;14.07;;;6.55;;
16099;SDS011;8154;50.830;12.082;2023-12-14T01:06:10;12.38;;;5.93;;
16099;SDS011;8154;50.830;12.082;2023-12-14T01:08:45;13.75;;;6.47;;
16099;SDS011;8154;50.830;12.082;2023-12-14T01:11:12;12.77;;;6.10;;
16099;SDS011;8154;50.830;12.082;2023-12-14T01:13:38;11.23;;;5.82;;
16099;SDS011;8154;50.830;12.082;2023-12-14T01:16:10;12.50;;;6.07;;
16099;SDS011;8154;50.830;12.082;2023-12-14T01:18:38;12.32;;;5.57;;
16099;SDS011;8154;50.830;12.082;2023-12-14T01:21:06;12.73;;;6.13;;
16099;SDS011;8154;50.830;12.082;2023-12-14T01:23:34;11.60;;;5.73;;
16099;SDS011;8154;50.830;12.082;2023-12-14T01:26:00;12.05;;;6.00;;
16099;SDS011;8154;50.830;12.082;2023-12-14T01:28:29;12.23;;;5.47;;
16099;SDS011;8154;50.830;12.082;2023-12-14T01:30:55;11.15;;;5.60;;
16099;SDS011;8154;50.830;12.082;2023-12-14T01:33:27;10.57;;;5.17;;
16099;SDS011;8154;50.830;12.082;2023-12-14T01:35:53;12.00;;;5.80;;
16099;SDS011;8154;50.830;12.082;2023-12-14T01:38:39;12.02;;;5.50;;
16099;SDS011;8154;50.830;12.082;2023-12-14T01:41:05;11.98;;;5.63;;
16099;SDS011;8154;50.830;12.082;2023-12-14T01:43:35;11.80;;;5.63;;
16099;SDS011;8154;50.830;12.082;2023-12-14T01:46:02;12.93;;;5.53;;
16099;SDS011;8154;50.830;12.082;2023-12-14T01:48:28;11.20;;;5.47;;
16099;SDS011;8154;50.830;12.082;2023-12-14T01:50:55;10.55;;;4.95;;
16099;SDS011;8154;50.830;12.082;2023-12-14T01:53:23;10.85;;;5.00;;
16099;SDS011;8154;50.830;12.082;2023-12-14T01:55:49;10.23;;;4.93;;
16099;SDS011;8154;50.830;12.082;2023-12-14T01:58:16;10.43;;;5.23;;
16099;SDS011;8154;50.830;12.082;2023-12-14T02:00:53;11.00;;;4.95;;
16099;SDS011;8154;50.830;12.082;2023-12-14T02:03:28;10.93;;;4.50;;
16099;SDS011;8154;50.830;12.082;2023-12-14T02:05:54;10.13;;;4.40;;
16099;SDS011;8154;50.830;12.082;2023-12-14T02:08:24;11.20;;;4.93;;
16099;SDS011;8154;50.830;12.082;2023-12-14T02:10:52;10.10;;;4.80;;
16099;SDS011;8154;50.830;12.082;2023-12-14T02:13:19;9.30;;;4.57;;
16099;SDS011;8154;50.830;12.082;2023-12-14T02:15:46;9.05;;;4.30;;
16099;SDS011;8154;50.830;12.082;2023-12-14T02:18:19;9.63;;;4.35;;
16099;SDS011;8154;50.830;12.082;2023-12-14T02:20:45;9.60;;;4.85;;
16099;SDS011;8154;50.830;12.082;2023-12-14T02:23:11;10.77;;;4.50;;
16099;SDS011;8154;50.830;12.082;2023-12-14T02:25:41;8.45;;;4.35;;
16099;SDS011;8154;50.830;12.082;2023-12-14T02:28:08;9.77;;;4.40;;
16099;SDS011;8154;50.830;12.082;2023-12-14T02:30:41;9.43;;;3.97;;
16099;SDS011;8154;50.830;12.082;2023-12-14T02:33:07;9.70;;;4.50;;
16099;SDS011;8154;50.830;12.082;2023-12-14T02:35:33;8.93;;;4.20;;
16099;SDS011;8154;50.830;12.082;2023-12-14T02:38:02;9.40;;;4.32;;
16099;SDS011;8154;50.830;12.082;2023-12-14T02:40:40;8.18;;;3.83;;
16099;SDS011;8154;50.830;12.082;2023-12-14T02:43:15;8.93;;;3.95;;
16099;SDS011;8154;50.830;12.082;2023-12-14T02:45:42;10.20;;;4.00;;
16099;SDS011;8154;50.830;12.082;2023-12-14T02:48:19;9.47;;;3.77;;
16099;SDS011;8154;50.830;12.082;2023-12-14T02:50:53;8.85;;;3.97;;
16099;SDS011;8154;50.830;12.082;2023-12-14T02:53:19;8.57;;;4.30;;
16099;SDS011;8154;50.830;12.082;2023-12-14T02:55:47;8.43;;;3.75;;
16099;SDS011;8154;50.830;12.082;2023-12-14T02:58:18;8.32;;;4.05;;
16099;SDS011;8154;50.830;12.082;2023-12-14T03:00:44;8.73;;;3.70;;
16099;SDS011;8154;50.830;12.082;2023-12-14T03:03:11;9.32;;;3.80;;
16099;SDS011;8154;50.830;12.082;2023-12-14T03:05:40;9.43;;;3.90;;
16099;SDS011;8154;50.830;12.082;2023-12-14T03:08:06;8.15;;;3.70;;
16099;SDS011;8154;50.830;12.082;2023-12-14T03:10:35;8.50;;;3.88;;
16099;SDS011;8154;50.830;12.082;2023-12-14T03:13:01;8.20;;;3.97;;
16099;SDS011;8154;50.830;12.082;2023-12-14T03:15:30;8.73;;;3.40;;
16099;SDS011;8154;50.830;12.082;2023-12-14T03:18:15;8.25;;;3.40;;
16099;SDS011;8154;50.830;12.082;2023-12-14T03:20:42;8.57;;;3.80;;
16099;SDS011;8154;50.830;12.082;2023-12-14T03:23:15;8.98;;;3.38;;
16099;SDS011;8154;50.830;12.082;2023-12-14T03:25:43;7.03;;;3.27;;
16099;SDS011;8154;50.830;12.082;2023-12-14T03:28:10;7.75;;;3.38;;
16099;SDS011;8154;50.830;12.082;2023-12-14T03:30:43;8.15;;;3.63;;
16099;SDS011;8154;50.830;12.082;2023-12-14T03:33:14;9.55;;;3.58;;
16099;SDS011;8154;50.830;12.082;2023-12-14T03:35:40;7.95;;;3.30;;
16099;SDS011;8154;50.830;12.082;2023-12-14T03:38:14;7.57;;;3.43;;
16099;SDS011;8154;50.830;12.082;2023-12-14T03:40:43;8.15;;;3.40;;
16099;SDS011;8154;50.830;12.082;2023-12-14T03:43:19;6.85;;;3.08;;
16099;SDS011;8154;50.830;12.082;2023-12-14T03:45:49;6.53;;;2.90;;
16099;SDS011;8154;50.830;12.082;2023-12-14T03:48:15;6.63;;;3.25;;
16099;SDS011;8154;50.830;12.082;2023-12-14T03:50:48;7.33;;;3.20;;
16099;SDS011;8154;50.830;12.082;2023-12-14T03:53:19;7.43;;;3.17;;
16099;SDS011;8154;50.830;12.082;2023-12-14T03:55:58;6.38;;;2.88;;
16099;SDS011;8154;50.830;12.082;2023-12-14T03:58:31;6.93;;;2.83;;
16099;SDS011;8154;50.830;12.082;2023-12-14T04:01:01;7.00;;;2.83;;
16099;SDS011;8154;50.830;12.082;2023-12-14T04:03:33;6.27;;;2.80;;
16099;SDS011;8154;50.830;12.082;2023-12-14T04:06:18;6.65;;;2.75;;
16099;SDS011;8154;50.830;12.082;2023-12-14T04:08:55;7.22;;;3.00;;
16099;SDS011;8154;50.830;12.082;2023-12-14T04:11:22;5.97;;;2.88;;
16099;SDS011;8154;50.830;12.082;2023-12-14T04:13:48;6.13;;;2.78;;
16099;SDS011;8154;50.830;12.082;2023-12-14T04:16:19;6.87;;;3.00;;
16099;SDS011;8154;50.830;12.082;2023-12-14T04:18:46;6.38;;;2.78;;
16099;SDS011;8154;50.830;12.082;2023-12-14T04:21:12;6.38;;;3.00;;
16099;SDS011;8154;50.830;12.082;2023-12-14T04:23:46;7.00;;;2.88;;
16099;SDS011;8154;50.830;12.082;2023-12-14T04:26:13;6.03;;;2.65;;
16099;SDS011;8154;50.830;12.082;2023-12-14T04:28:39;6.27;;;2.53;;
16099;SDS011;8154;50.830;12.082;2023-12-14T04:31:07;6.43;;;2.35;;
16099;SDS011;8154;50.830;12.082;2023-12-14T04:33:37;7.15;;;3.15;;
16099;SDS011;8154;50.830;12.082;2023-12-14T04:36:07;6.82;;;2.75;;
16099;SDS011;8154;50.830;12.082;2023-12-14T04:38:33;6.00;;;2.88;;
16099;SDS011;8154;50.830;12.082;2023-12-14T04:40:59;5.80;;;2.77;;
16099;SDS011;8154;50.830;12.082;2023-12-14T04:43:31;6.45;;;3.03;;
16099;SDS011;8154;50.830;12.082;2023-12-14T04:45:57;6.55;;;2.60;;
16099;SDS011;8154;50.830;12.082;2023-12-14T04:48:24;6.05;;;2.40;;
16099;SDS011;8154;50.830;12.082;2023-12-14T04:50:50;6.07;;;2.53;;
16099;SDS011;8154;50.830;12.082;2023-12-14T04:53:16;5.60;;;2.70;;
16099;SDS011;8154;50.830;12.082;2023-12-14T04:55:56;5.63;;;2.30;;
16099;SDS011;8154;50.830;12.082;2023-12-14T04:58:23;6.30;;;2.90;;
16099;SDS011;8154;50.830;12.082;2023-12-14T05:01:07;5.82;;;2.55;;
16099;SDS011;8154;50.830;12.082;2023-12-14T05:03:37;5.93;;;2.47;;
16099;SDS011;8154;50.830;12.082;2023-12-14T05:10:01;5.60;;;2.40;;
16099;SDS011;8154;50.830;12.082;2023-12-14T05:12:35;5.90;;;2.55;;
16099;SDS011;8154;50.830;12.082;2023-12-14T05:15:21;5.43;;;2.25;;
16099;SDS011;8154;50.830;12.082;2023-12-14T05:17:54;5.63;;;2.40;;
16099;SDS011;8154;50.830;12.082;2023-12-14T05:20:21;5.10;;;2.20;;
16099;SDS011;8154;50.830;12.082;2023-12-14T05:22:55;5.72;;;2.42;;
16099;SDS011;8154;50.830;12.082;2023-12-14T05:25:21;5.63;;;2.40;;
16099;SDS011;8154;50.830;12.082;2023-12-14T05:28:07;5.22;;;2.30;;
16099;SDS011;8154;50.830;12.082;2023-12-14T05:30:36;5.63;;;2.28;;
16099;SDS011;8154;50.830;12.082;2023-12-14T05:33:21;5.10;;;2.30;;
16099;SDS011;8154;50.830;12.082;2023-12-14T05:35:55;5.05;;;2.35;;
16099;SDS011;8154;50.830;12.082;2023-12-14T05:38:41;4.90;;;2.20;;
16099;SDS011;8154;50.830;12.082;2023-12-14T05:41:10;5.80;;;2.20;;
16099;SDS011;8154;50.830;12.082;2023-12-14T05:43:36;5.18;;;2.28;;
16099;SDS011;8154;50.830;12.082;2023-12-14T05:46:05;4.67;;;2.37;;
16099;SDS011;8154;50.830;12.082;2023-12-14T05:48:34;4.70;;;2.30;;
16099;SDS011;8154;50.830;12.082;2023-12-14T05:51:09;5.47;;;2.38;;
16099;SDS011;8154;50.830;12.082;2023-12-14T05:53:56;4.38;;;1.92;;
16099;SDS011;8154;50.830;12.082;2023-12-14T05:59:35;4.97;;;2.23;;
16099;SDS011;8154;50.830;12.082;2023-12-14T06:02:08;5.15;;;2.17;;
16099;SDS011;8154;50.830;12.082;2023-12-14T06:04:35;4.93;;;2.15;;
16099;SDS011;8154;50.830;12.082;2023-12-14T06:07:20;4.85;;;1.98;;
16099;SDS011;8154;50.830;12.082;2023-12-14T06:09:50;4.57;;;2.10;;
16099;SDS011;8154;50.830;12.082;2023-12-14T06:12:29;5.07;;;2.33;;
16099;SDS011;8154;50.830;12.082;2023-12-14T06:14:57;4.50;;;2.05;;
16099;SDS011;8154;50.830;12.082;2023-12-14T06:17:23;5.00;;;2.10;;
16099;SDS011;8154;50.830;12.082;2023-12-14T06:19:50;4.78;;;2.20;;
16099;SDS011;8154;50.830;12.082;2023-12-14T06:22:23;4.90;;;1.98;;
16099;SDS011;8154;50.830;12.082;2023-12-14T06:24:51;4.80;;;1.90;;
16099;SDS011;8154;50.830;12.082;2023-12-14T06:27:18;4.95;;;2.00;;
16099;SDS011;8154;50.830;12.082;2023-12-14T06:29:44;4.85;;;2.00;;
16099;SDS011;8154;50.830;12.082;2023-12-14T06:32:11;4.40;;;1.80;;
16099;SDS011;8154;50.830;12.082;2023-12-14T06:34:56;4.60;;;1.90;;
16099;SDS011;8154;50.830;12.082;2023-12-14T06:37:24;5.47;;;2.00;;
16099;SDS011;8154;50.830;12.082;2023-12-14T06:40:00;4.72;;;1.90;;
16099;SDS011;8154;50.830;12.082;2023-12-14T06:42:45;5.07;;;2.05;;
16099;SDS011;8154;50.830;12.082;2023-12-14T06:45:12;4.93;;;2.13;;
16099;SDS011;8154;50.830;12.082;2023-12-14T06:47:48;5.05;;;2.10;;
16099;SDS011;8154;50.830;12.082;2023-12-14T06:50:40;4.27;;;1.70;;
16099;SDS011;8154;50.830;12.082;2023-12-14T06:53:08;4.03;;;1.70;;
16099;SDS011;8154;50.830;12.082;2023-12-14T06:55:47;4.03;;;1.77;;
16099;SDS011;8154;50.830;12.082;2023-12-14T06:58:18;4.28;;;1.85;;
16099;SDS011;8154;50.830;12.082;2023-12-14T07:01:04;3.95;;;1.70;;
16099;SDS011;8154;50.830;12.082;2023-12-14T07:03:33;5.00;;;2.00;;
16099;SDS011;8154;50.830;12.082;2023-12-14T07:06:05;3.95;;;1.70;;
16099;SDS011;8154;50.830;12.082;2023-12-14T07:08:37;3.80;;;1.60;;
16099;SDS011;8154;50.830;12.082;2023-12-14T07:11:04;3.55;;;1.50;;
16099;SDS011;8154;50.830;12.082;2023-12-14T07:13:31;4.53;;;1.88;;
16099;SDS011;8154;50.830;12.082;2023-12-14T07:16:03;4.07;;;1.73;;
16099;SDS011;8154;50.830;12.082;2023-12-14T07:18:35;3.40;;;1.60;;
16099;SDS011;8154;50.830;12.082;2023-12-14T07:21:02;3.75;;;1.75;;
16099;SDS011;8154;50.830;12.082;2023-12-14T07:23:35;3.70;;;1.70;;
16099;SDS011;8154;50.830;12.082;2023-12-14T07:26:01;3.08;;;1.60;;
16099;SDS011;8154;50.830;12.082;2023-12-14T07:28:29;4.10;;;1.90;;
16099;SDS011;8154;50.830;12.082;2023-12-14T07:30:55;4.75;;;1.85;;
16099;SDS011;8154;50.830;12.082;2023-12-14T07:33:41;3.83;;;1.60;;
16099;SDS011;8154;50.830;12.082;2023-12-14T07:36:11;4.43;;;1.85;;
16099;SDS011;8154;50.830;12.082;2023-12-14T07:38:38;3.70;;;1.60;;
16099;SDS011;8154;50.830;12.082;2023-12-14T07:41:08;3.80;;;1.80;;
16099;SDS011;8154;50.830;12.082;2023-12-14T07:43:54;4.00;;;1.60;;
16099;SDS011;8154;50.830;12.082;2023-12-14T07:46:23;4.10;;;1.70;;
16099;SDS011;8154;50.830;12.082;2023-12-14T07:48:51;3.53;;;1.63;;
16099;SDS011;8154;50.830;12.082;2023-12-14T07:51:17;4.32;;;1.88;;
16099;SDS011;8154;50.830;12.082;2023-12-14T07:53:47;5.13;;;1.87;;
16099;SDS011;8154;50.830;12.082;2023-12-14T07:56:13;3.40;;;1.60;;
16099;SDS011;8154;50.830;12.082;2023-12-14T07:58:44;4.07;;;1.50;;
16099;SDS011;8154;50.830;12.082;2023-12-14T08:01:20;3.60;;;1.40;;
16099;SDS011;8154;50.830;12.082;2023-12-14T08:03:46;3.53;;;1.50;;
16099;SDS011;8154;50.830;12.082;2023-12-14T08:06:19;4.05;;;1.70;;
16099;SDS011;8154;50.830;12.082;2023-12-14T08:09:04;3.75;;;1.60;;
16099;SDS011;8154;50.830;12.082;2023-12-14T08:11:32;3.25;;;1.55;;
16099;SDS011;8154;50.830;12.082;2023-12-14T08:14:08;3.65;;;1.52;;
16099;SDS011;8154;50.830;12.082;2023-12-14T08:16:35;3.40;;;1.40;;
16099;SDS011;8154;50.830;12.082;2023-12-14T08:19:03;3.45;;;1.65;;
16099;SDS011;8154;50.830;12.082;2023-12-14T08:21:46;3.50;;;1.48;;
16099;SDS011;8154;50.830;12.082;2023-12-14T08:24:12;3.42;;;1.52;;
16099;SDS011;8154;50.830;12.082;2023-12-14T08:26:38;3.58;;;1.58;;
16099;SDS011;8154;50.830;12.082;2023-12-14T08:29:06;3.27;;;1.57;;
16099;SDS011;8154;50.830;12.082;2023-12-14T08:31:32;3.63;;;1.50;;
16099;SDS011;8154;50.830;12.082;2023-12-14T08:34:03;3.85;;;1.42;;
16099;SDS011;8154;50.830;12.082;2023-12-14T08:36:29;4.88;;;2.13;;
16099;SDS011;8154;50.830;12.082;2023-12-14T08:38:57;4.93;;;1.90;;
16099;SDS011;8154;50.830;12.082;2023-12-14T08:41:41;3.87;;;1.63;;
16099;SDS011;8154;50.830;12.082;2023-12-14T08:44:10;4.38;;;2.00;;
16099;SDS011;8154;50.830;12.082;2023-12-14T08:46:54;4.03;;;1.80;;
16099;SDS011;8154;50.830;12.082;2023-12-14T08:49:40;3.88;;;1.75;;
16099;SDS011;8154;50.830;12.082;2023-12-14T08:52:25;3.25;;;1.80;;
16099;SDS011;8154;50.830;12.082;2023-12-14T08:54:51;4.20;;;1.70;;
16099;SDS011;8154;50.830;12.082;2023-12-14T08:57:17;4.18;;;1.80;;
16099;SDS011;8154;50.830;12.082;2023-12-14T08:59:47;3.90;;;1.70;;
16099;SDS011;8154;50.830;12.082;2023-12-14T09:02:14;3.80;;;1.67;;
16099;SDS011;8154;50.830;12.082;2023-12-14T09:04:41;4.40;;;1.85;;
16099;SDS011;8154;50.830;12.082;2023-12-14T09:07:13;3.43;;;1.67;;
16099;SDS011;8154;50.830;12.082;2023-12-14T09:09:42;4.72;;;1.63;;
16099;SDS011;8154;50.830;12.082;2023-12-14T09:12:11;5.00;;;2.00;;
16099;SDS011;8154;50.830;12.082;2023-12-14T09:14:37;4.15;;;1.58;;
16099;SDS011;8154;50.830;12.082;2023-12-14T09:17:08;4.75;;;1.70;;
16099;SDS011;8154;50.830;12.082;2023-12-14T09:19:35;6.83;;;2.03;;
16099;SDS011;8154;50.830;12.082;2023-12-14T09:22:06;6.47;;;1.90;;
16099;SDS011;8154;50.830;12.082;2023-12-14T09:24:32;4.00;;;1.60;;
16099;SDS011;8154;50.830;12.082;2023-12-14T09:27:01;3.72;;;1.42;;
16099;SDS011;8154;50.830;12.082;2023-12-14T09:29:30;3.95;;;1.65;;
16099;SDS011;8154;50.830;12.082;2023-12-14T09:32:17;4.13;;;1.53;;
16099;SDS011;8154;50.830;12.082;2023-12-14T09:34:57;4.45;;;1.60;;
16099;SDS011;8154;50.830;12.082;2023-12-14T09:37:43;4.65;;;1.60;;
16099;SDS011;8154;50.830;12.082;2023-12-14T09:40:30;4.05;;;1.52;;
16099;SDS011;8154;50.830;12.082;2023-12-14T09:43:08;4.25;;;1.48;;
16099;SDS011;8154;50.830;12.082;2023-12-14T09:45:38;3.90;;;1.60;;
16099;SDS011;8154;50.830;12.082;2023-12-14T09:48:15;4.60;;;1.50;;
16099;SDS011;8154;50.830;12.082;2023-12-14T09:50:55;4.22;;;1.55;;
16099;SDS011;8154;50.830;12.082;2023-12-14T09:53:27;4.28;;;1.70;;
16099;SDS011;8154;50.830;12.082;2023-12-14T09:56:08;3.38;;;1.33;;
16099;SDS011;8154;50.830;12.082;2023-12-14T09:58:47;4.33;;;1.60;;
16099;SDS011;8154;50.830;12.082;2023-12-14T10:01:26;2.92;;;1.40;;
16099;SDS011;8154;50.830;12.082;2023-12-14T10:04:07;3.92;;;1.60;;
16099;SDS011;8154;50.830;12.082;2023-12-14T10:06:41;3.60;;;1.70;;
16099;SDS011;8154;50.830;12.082;2023-12-14T10:09:15;3.92;;;1.60;;
16099;SDS011;8154;50.830;12.082;2023-12-14T10:12:05;4.87;;;1.47;;
16099;SDS011;8154;50.830;12.082;2023-12-14T10:15:02;4.05;;;1.60;;
16099;SDS011;8154;50.830;12.082;2023-12-14T10:17:43;3.75;;;1.58;;
16099;SDS011;8154;50.830;12.082;2023-12-14T10:20:29;3.83;;;1.40;;
16099;SDS011;8154;50.830;12.082;2023-12-14T10:22:58;3.50;;;1.50;;
16099;SDS011;8154;50.830;12.082;2023-12-14T10:25:43;4.03;;;1.60;;
16099;SDS011;8154;50.830;12.082;2023-12-14T10:28:29;3.90;;;1.50;;
16099;SDS011;8154;50.830;12.082;2023-12-14T10:30:59;3.25;;;1.42;;
16099;SDS011;8154;50.830;12.082;2023-12-14T10:33:32;4.10;;;1.55;;
16099;SDS011;8154;50.830;12.082;2023-12-14T10:36:19;4.57;;;1.60;;
16099;SDS011;8154;50.830;12.082;2023-12-14T10:39:01;3.17;;;1.40;;
16099;SDS011;8154;50.830;12.082;2023-12-14T10:41:47;3.50;;;1.52;;
16099;SDS011;8154;50.830;12.082;2023-12-14T10:44:25;2.90;;;1.33;;
16099;SDS011;8154;50.830;12.082;2023-12-14T10:47:13;2.92;;;1.20;;
16099;SDS011;8154;50.830;12.082;2023-12-14T10:49:50;4.40;;;1.30;;
16099;SDS011;8154;50.830;12.082;2023-12-14T10:52:39;3.93;;;1.50;;
16099;SDS011;8154;50.830;12.082;2023-12-14T10:55:37;4.63;;;1.40;;
16099;SDS011;8154;50.830;12.082;2023-12-14T10:58:07;2.75;;;1.40;;
16099;SDS011;8154;50.830;12.082;2023-12-14T11:01:01;4.30;;;1.60;;
16099;SDS011;8154;50.830;12.082;2023-12-14T11:03:39;2.75;;;1.27;;
16099;SDS011;8154;50.830;12.082;2023-12-14T11:09:07;3.28;;;1.40;;
16099;SDS011;8154;50.830;12.082;2023-12-14T11:11:55;3.15;;;1.40;;
16099;SDS011;8154;50.830;12.082;2023-12-14T11:14:45;2.65;;;1.38;;
16099;SDS011;8154;50.830;12.082;2023-12-14T11:17:32;3.35;;;1.38;;
16099;SDS011;8154;50.830;12.082;2023-12-14T11:22:51;2.70;;;1.30;;
16099;SDS011;8154;50.830;12.082;2023-12-14T11:25:41;3.00;;;1.20;;
16099;SDS011;8154;50.830;12.082;2023-12-14T11:28:08;3.25;;;1.25;;
16099;SDS011;8154;50.830;12.082;2023-12-14T11:30:44;3.20;;;1.33;;
16099;SDS011;8154;50.830;12.082;2023-12-14T11:33:13;3.20;;;1.40;;
16099;SDS011;8154;50.830;12.082;2023-12-14T11:35:41;3.75;;;1.27;;
16099;SDS011;8154;50.830;12.082;2023-12-14T11:38:10;2.67;;;1.10;;
16099;SDS011;8154;50.830;12.082;2023-12-14T11:40:58;3.17;;;1.20;;
16099;SDS011;8154;50.830;12.082;2023-12-14T11:43:27;2.47;;;1.13;;
16099;SDS011;8154;50.830;12.082;2023-12-14T11:45:58;2.73;;;1.30;;
16099;SDS011;8154;50.830;12.082;2023-12-14T11:48:44;2.72;;;1.40;;
16099;SDS011;8154;50.830;12.082;2023-12-14T11:51:17;2.60;;;1.33;;
16099;SDS011;8154;50.830;12.082;2023-12-14T11:53:47;2.92;;;1.30;;
16099;SDS011;8154;50.830;12.082;2023-12-14T11:56:20;2.35;;;1.20;;
16099;SDS011;8154;50.830;12.082;2023-12-14T11:58:52;3.57;;;1.30;;
16099;SDS011;8154;50.830;12.082;2023-12-14T12:01:21;2.30;;;1.13;;
16099;SDS011;8154;50.830;12.082;2023-12-14T12:03:57;2.72;;;1.27;;
16099;SDS011;8154;50.830;12.082;2023-12-14T12:07:05;2.05;;;1.05;;
16099;SDS011;8154;50.830;12.082;2023-12-14T12:09:38;3.28;;;1.35;;
16099;SDS011;8154;50.830;12.082;2023-12-14T12:12:09;2.43;;;1.13;;
16099;SDS011;8154;50.830;12.082;2023-12-14T12:14:56;2.65;;;1.20;;
16099;SDS011;8154;50.830;12.082;2023-12-14T12:17:22;3.25;;;1.30;;
16099;SDS011;8154;50.830;12.082;2023-12-14T12:19:50;3.05;;;1.40;;
16099;SDS011;8154;50.830;12.082;2023-12-14T12:22:35;3.15;;;1.33;;
16099;SDS011;8154;50.830;12.082;2023-12-14T12:25:06;2.50;;;1.30;;
16099;SDS011;8154;50.830;12.082;2023-12-14T12:27:41;2.80;;;1.20;;
16099;SDS011;8154;50.830;12.082;2023-12-14T12:30:09;2.70;;;1.00;;
16099;SDS011;8154;50.830;12.082;2023-12-14T12:32:38;3.15;;;1.25;;
16099;SDS011;8154;50.830;12.082;2023-12-14T12:35:10;2.28;;;1.13;;
16099;SDS011;8154;50.830;12.082;2023-12-14T12:37:36;2.60;;;1.17;;
16099;SDS011;8154;50.830;12.082;2023-12-14T12:40:13;3.30;;;1.30;;
16099;SDS011;8154;50.830;12.082;2023-12-14T12:42:46;3.00;;;1.20;;
16099;SDS011;8154;50.830;12.082;2023-12-14T12:45:21;2.53;;;1.27;;
16099;SDS011;8154;50.830;12.082;2023-12-14T12:47:57;1.80;;;0.90;;
16099;SDS011;8154;50.830;12.082;2023-12-14T12:50:31;2.63;;;1.23;;
16099;SDS011;8154;50.830;12.082;2023-12-14T12:53:16;3.00;;;1.30;;
16099;SDS011;8154;50.830;12.082;2023-12-14T12:55:43;2.08;;;1.00;;
16099;SDS011;8154;50.830;12.082;2023-12-14T12:58:10;2.65;;;1.20;;
16099;SDS011;8154;50.830;12.082;2023-12-14T13:00:56;2.92;;;1.20;;
16099;SDS011;8154;50.830;12.082;2023-12-14T13:03:31;2.43;;;1.10;;
16099;SDS011;8154;50.830;12.082;2023-12-14T13:06:00;3.85;;;1.30;;
16099;SDS011;8154;50.830;12.082;2023-12-14T13:08:26;2.15;;;1.00;;
16099;SDS011;8154;50.830;12.082;2023-12-14T13:10:53;1.85;;;1.02;;
16099;SDS011;8154;50.830;12.082;2023-12-14T13:13:20;3.00;;;1.17;;
16099;SDS011;8154;50.830;12.082;2023-12-14T13:15:49;1.73;;;0.90;;
16099;SDS011;8154;50.830;12.082;2023-12-14T13:18:15;1.90;;;1.10;;
16099;SDS011;8154;50.830;12.082;2023-12-14T13:20:43;2.33;;;0.90;;
16099;SDS011;8154;50.830;12.082;2023-12-14T13:23:29;2.50;;;1.10;;
16099;SDS011;8154;50.830;12.082;2023-12-14T13:29:32;2.07;;;1.10;;
16099;SDS011;8154;50.830;12.082;2023-12-14T13:38:55;2.45;;;1.10;;
16099;SDS011;8154;50.830;12.082;2023-12-14T13:41:42;2.20;;;1.00;;
16099;SDS011;8154;50.830;12.082;2023-12-14T13:44:09;3.20;;;1.27;;
16099;SDS011;8154;50.830;12.082;2023-12-14T13:46:37;2.28;;;1.00;;
16099;SDS011;8154;50.830;12.082;2023-12-14T13:49:06;2.55;;;1.10;;
16099;SDS011;8154;50.830;12.082;2023-12-14T13:51:34;2.17;;;1.10;;
16099;SDS011;8154;50.830;12.082;2023-12-14T13:54:03;1.63;;;0.90;;
16099;SDS011;8154;50.830;12.082;2023-12-14T13:56:34;2.40;;;1.10;;
16099;SDS011;8154;50.830;12.082;2023-12-14T13:59:10;2.15;;;0.90;;
16099;SDS011;8154;50.830;12.082;2023-12-14T14:01:37;2.25;;;1.00;;
16099;SDS011;8154;50.830;12.082;2023-12-14T14:04:05;1.58;;;0.88;;
16099;SDS011;8154;50.830;12.082;2023-12-14T14:06:35;2.53;;;1.10;;
16099;SDS011;8154;50.830;12.082;2023-12-14T14:09:05;1.70;;;1.00;;
16099;SDS011;8154;50.830;12.082;2023-12-14T14:11:36;1.95;;;0.98;;
16099;SDS011;8154;50.830;12.082;2023-12-14T14:14:30;2.20;;;0.90;;
16099;SDS011;8154;50.830;12.082;2023-12-14T14:16:57;2.22;;;1.00;;
16099;SDS011;8154;50.830;12.082;2023-12-14T14:19:56;2.63;;;1.00;;
16099;SDS011;8154;50.830;12.082;2023-12-14T14:22:32;2.30;;;1.00;;
16099;SDS011;8154;50.830;12.082;2023-12-14T14:25:07;2.35;;;1.02;;
16099;SDS011;8154;50.830;12.082;2023-12-14T14:27:53;2.20;;;0.90;;
16099;SDS011;8154;50.830;12.082;2023-12-14T14:30:38;2.42;;;1.17;;
16099;SDS011;8154;50.830;12.082;2023-12-14T14:33:14;1.33;;;0.80;;
16099;SDS011;8154;50.830;12.082;2023-12-14T14:36:03;2.30;;;0.90;;
16099;SDS011;8154;50.830;12.082;2023-12-14T14:38:49;2.33;;;0.80;;
16099;SDS011;8154;50.830;12.082;2023-12-14T14:41:26;2.42;;;1.00;;
16099;SDS011;8154;50.830;12.082;2023-12-14T14:44:12;1.77;;;0.90;;
16099;SDS011;8154;50.830;12.082;2023-12-14T14:46:58;1.80;;;0.90;;
16099;SDS011;8154;50.830;12.082;2023-12-14T14:49:43;2.23;;;1.10;;
16099;SDS011;8154;50.830;12.082;2023-12-14T14:52:12;2.85;;;0.90;;
16099;SDS011;8154;50.830;12.082;2023-12-14T14:54:41;2.20;;;1.05;;
16099;SDS011;8154;50.830;12.082;2023-12-14T14:57:27;1.83;;;1.08;;
16099;SDS011;8154;50.830;12.082;2023-12-14T15:00:13;2.30;;;1.00;;
16099;SDS011;8154;50.830;12.082;2023-12-14T15:02:51;2.23;;;0.97;;
16099;SDS011;8154;50.830;12.082;2023-12-14T15:05:34;2.28;;;1.00;;
16099;SDS011;8154;50.830;12.082;2023-12-14T15:08:11;2.50;;;1.20;;
16099;SDS011;8154;50.830;12.082;2023-12-14T15:10:40;2.95;;;1.27;;
16099;SDS011;8154;50.830;12.082;2023-12-14T15:13:22;2.78;;;1.30;;
16099;SDS011;8154;50.830;12.082;2023-12-14T15:15:53;2.60;;;1.23;;
16099;SDS011;8154;50.830;12.082;2023-12-14T15:18:40;2.42;;;1.30;;
16099;SDS011;8154;50.830;12.082;2023-12-14T15:21:19;2.58;;;1.20;;
16099;SDS011;8154;50.830;12.082;2023-12-14T15:23:59;2.50;;;1.20;;
16099;SDS011;8154;50.830;12.082;2023-12-14T15:26:25;2.50;;;1.20;;
16099;SDS011;8154;50.830;12.082;2023-12-14T15:29:15;2.37;;;1.17;;
16099;SDS011;8154;50.830;12.082;2023-12-14T15:31:45;2.53;;;1.10;;
16099;SDS011;8154;50.830;12.082;2023-12-14T15:34:22;2.80;;;1.42;;
16099;SDS011;8154;50.830;12.082;2023-12-14T15:37:03;2.40;;;1.20;;
16099;SDS011;8154;50.830;12.082;2023-12-14T15:39:49;2.70;;;1.20;;
16099;SDS011;8154;50.830;12.082;2023-12-14T15:42:19;2.50;;;1.17;;
16099;SDS011;8154;50.830;12.082;2023-12-14T15:44:56;3.30;;;1.45;;